Time;durP1;ratioP1;P1;durP2;ratioP2;P2;SDS_P1;SDS_P2;PMS_P1;PMS_P2;Temp;Humidity;BMP_temperature;BMP_pressure;BME280_temperature;BME280_humidity;BME280_pressure;Samples;Min_cycle;Max_cycle;Signal;HPM_P1;HPM_P2
2023/12/20 00:02:16;;;;;;;;;;;7.10;99.90;;;;;;5104797;27;19934;-76
2023/12/20 00:04:42;;;;;;;;;;;7.10;99.90;;;;;;5098953;27;20305;-76
2023/12/20 00:07:07;;;;;;;;;;;7.10;99.90;;;;;;5110633;27;20034;-77
2023/12/20 00:09:33;;;;;;;;;;;7.10;99.90;;;;;;5108767;27;20040;-76
2023/12/20 00:11:59;;;;;;;;;;;7.10;99.90;;;;;;5111943;27;19966;-77
2023/12/20 00:14:24;;;;;;;;;;;7.20;99.90;;;;;;5105377;27;19927;-77
2023/12/20 00:16:50;;;;;;;;;;;7.20;99.90;;;;;;5108589;27;19931;-76
2023/12/20 00:19:15;;;;;;;;;;;7.20;99.90;;;;;;5106070;27;20414;-78
2023/12/20 00:21:42;;;;;;;;;;;7.20;99.90;;;;;;5100077;27;20006;-77
2023/12/20 00:24:07;;;;;;;;;;;7.20;99.90;;;;;;5115036;27;19927;-78
2023/12/20 00:26:33;;;;;;;;;;;7.20;99.90;;;;;;5080351;27;19981;-78
2023/12/20 00:28:59;;;;;;;;;;;7.20;99.90;;;;;;5125971;27;19931;-77
2023/12/20 00:31:24;;;;;;;;;;;7.20;99.90;;;;;;5107805;27;19949;-76
2023/12/20 00:33:50;;;;;;;;;;;7.20;99.90;;;;;;5105379;27;20275;-76
2023/12/20 00:36:15;;;;;;;;;;;7.20;99.90;;;;;;5101689;27;20045;-77
2023/12/20 00:38:41;;;;;;;;;;;7.20;99.90;;;;;;5111430;27;19927;-77
2023/12/20 00:41:07;;;;;;;;;;;7.20;99.90;;;;;;5090353;27;19927;-76
2023/12/20 00:43:32;;;;;;;;;;;7.20;99.90;;;;;;5107165;27;19930;-77
2023/12/20 00:45:59;;;;;;;;;;;7.20;99.90;;;;;;5107578;27;20006;-77
2023/12/20 00:48:26;;;;;;;;;;;7.30;99.90;;;;;;5109712;27;19931;-77
2023/12/20 00:50:52;;;;;;;;;;;7.30;99.90;;;;;;5105110;27;19931;-77
2023/12/20 00:53:18;;;;;;;;;;;7.30;99.90;;;;;;5105835;27;19938;-77
2023/12/20 00:55:44;;;;;;;;;;;7.30;99.90;;;;;;5100022;27;20400;-77
2023/12/20 00:58:10;;;;;;;;;;;7.30;99.90;;;;;;5098582;27;19934;-76
2023/12/20 01:00:36;;;;;;;;;;;7.30;99.90;;;;;;5111203;27;21463;-78
2023/12/20 01:03:01;;;;;;;;;;;7.30;99.90;;;;;;5094535;27;20249;-76
2023/12/20 01:05:27;;;;;;;;;;;7.30;99.90;;;;;;5111034;27;20289;-76
2023/12/20 01:07:52;;;;;;;;;;;7.30;99.90;;;;;;5125595;27;19927;-77
2023/12/20 01:10:18;;;;;;;;;;;7.30;99.90;;;;;;5091871;27;19930;-77
2023/12/20 01:12:44;;;;;;;;;;;7.30;99.90;;;;;;5094581;27;19954;-76
2023/12/20 01:15:10;;;;;;;;;;;7.30;99.90;;;;;;5090916;27;20377;-77
2023/12/20 01:17:35;;;;;;;;;;;7.30;99.90;;;;;;5111295;27;20034;-78
2023/12/20 01:20:01;;;;;;;;;;;7.30;99.90;;;;;;5081180;27;19927;-77
2023/12/20 01:22:28;;;;;;;;;;;7.30;99.90;;;;;;5096902;27;20054;-77
2023/12/20 01:24:53;;;;;;;;;;;7.30;99.90;;;;;;5090191;27;20947;-77
2023/12/20 01:27:19;;;;;;;;;;;7.30;99.90;;;;;;5101122;27;19927;-77
2023/12/20 01:29:45;;;;;;;;;;;7.30;99.90;;;;;;5093238;27;19927;-77
2023/12/20 01:32:10;;;;;;;;;;;7.30;99.90;;;;;;5090541;27;19976;-77
2023/12/20 01:34:36;;;;;;;;;;;7.30;99.90;;;;;;5110445;27;21956;-77
2023/12/20 01:37:02;;;;;;;;;;;7.40;99.90;;;;;;5101384;27;19934;-77
2023/12/20 01:39:28;;;;;;;;;;;7.40;99.90;;;;;;5115366;27;19934;-76
2023/12/20 01:41:53;;;;;;;;;;;7.40;99.90;;;;;;5105593;27;19924;-77
2023/12/20 01:44:19;;;;;;;;;;;7.40;99.90;;;;;;5091436;27;20096;-77
2023/12/20 01:46:45;;;;;;;;;;;7.40;99.90;;;;;;5110267;27;19931;-77
2023/12/20 01:49:11;;;;;;;;;;;7.40;99.90;;;;;;5112782;27;20011;-77
2023/12/20 01:51:36;;;;;;;;;;;7.40;99.90;;;;;;5105535;27;19930;-76
2023/12/20 01:54:02;;;;;;;;;;;7.40;99.90;;;;;;5111219;27;19934;-77
2023/12/20 01:56:29;;;;;;;;;;;7.40;99.90;;;;;;5072448;27;20674;-76
2023/12/20 01:58:55;;;;;;;;;;;7.40;99.90;;;;;;5089805;27;19991;-77
2023/12/20 02:01:21;;;;;;;;;;;7.40;99.90;;;;;;5104833;27;20019;-77
2023/12/20 02:03:47;;;;;;;;;;;7.40;99.90;;;;;;5074085;27;19935;-76
2023/12/20 02:06:13;;;;;;;;;;;7.40;99.90;;;;;;5103077;27;19923;-77
2023/12/20 02:08:38;;;;;;;;;;;7.50;99.90;;;;;;5107538;27;19931;-76
2023/12/20 02:11:04;;;;;;;;;;;7.50;99.90;;;;;;5101969;27;19928;-77
2023/12/20 02:13:30;;;;;;;;;;;7.50;99.90;;;;;;5092919;27;19931;-76
2023/12/20 02:15:56;;;;;;;;;;;7.50;99.90;;;;;;5106429;27;19927;-76
2023/12/20 02:18:22;;;;;;;;;;;7.50;99.90;;;;;;5102674;27;19971;-77
2023/12/20 02:20:47;;;;;;;;;;;7.50;99.90;;;;;;5095076;27;20039;-77
2023/12/20 02:23:13;;;;;;;;;;;7.50;99.90;;;;;;5104695;27;20406;-77
2023/12/20 02:25:39;;;;;;;;;;;7.50;99.90;;;;;;5112711;27;20272;-76
2023/12/20 02:28:05;;;;;;;;;;;7.50;99.90;;;;;;5101086;27;19927;-77
2023/12/20 02:30:31;;;;;;;;;;;7.80;99.90;;;;;;5077261;27;19983;-77
2023/12/20 02:32:57;;;;;;;;;;;7.50;99.90;;;;;;5128471;27;19927;-77
2023/12/20 02:35:22;;;;;;;;;;;7.40;99.90;;;;;;5096526;27;19931;-76
2023/12/20 02:37:48;;;;;;;;;;;7.40;99.90;;;;;;5113245;27;19931;-76
2023/12/20 02:40:14;;;;;;;;;;;7.40;99.90;;;;;;5089799;27;21495;-76
2023/12/20 02:42:42;;;;;;;;;;;7.40;99.90;;;;;;5108135;27;19923;-77
2023/12/20 02:45:08;;;;;;;;;;;7.40;99.90;;;;;;5126829;27;19938;-76
2023/12/20 02:47:33;;;;;;;;;;;7.40;99.90;;;;;;5110817;27;19941;-76
2023/12/20 02:49:59;;;;;;;;;;;7.40;99.90;;;;;;5106276;27;20503;-76
2023/12/20 02:52:25;;;;;;;;;;;7.40;99.90;;;;;;5104504;27;19936;-76
2023/12/20 02:54:50;;;;;;;;;;;7.40;99.90;;;;;;5093451;27;20259;-77
2023/12/20 02:57:16;;;;;;;;;;;7.40;99.90;;;;;;5087645;27;20350;-77
2023/12/20 02:59:42;;;;;;;;;;;7.40;99.90;;;;;;5110896;27;19923;-77
2023/12/20 03:02:07;;;;;;;;;;;7.40;99.90;;;;;;5107861;27;20368;-76
2023/12/20 03:04:33;;;;;;;;;;;7.40;99.90;;;;;;5094534;27;20013;-76
2023/12/20 03:06:59;;;;;;;;;;;7.40;99.90;;;;;;5110523;27;19927;-76
2023/12/20 03:09:24;;;;;;;;;;;7.50;99.90;;;;;;5094551;27;20962;-76
2023/12/20 03:11:50;;;;;;;;;;;7.40;99.90;;;;;;5094891;27;19927;-77
2023/12/20 03:14:16;;;;;;;;;;;7.40;99.90;;;;;;5094118;27;19923;-77
2023/12/20 03:16:41;;;;;;;;;;;7.50;99.90;;;;;;5108206;27;20007;-77
2023/12/20 03:19:07;;;;;;;;;;;7.50;99.90;;;;;;5107742;27;19948;-77
2023/12/20 03:21:32;;;;;;;;;;;7.50;99.90;;;;;;5093566;27;21552;-76
2023/12/20 03:23:58;;;;;;;;;;;7.50;99.90;;;;;;5128260;27;19966;-76
2023/12/20 03:26:24;;;;;;;;;;;7.50;99.90;;;;;;5073179;27;20362;-77
2023/12/20 03:28:49;;;;;;;;;;;7.50;99.90;;;;;;5092702;27;19924;-76
2023/12/20 03:31:15;;;;;;;;;;;7.50;99.90;;;;;;5110729;27;19927;-76
2023/12/20 03:33:41;;;;;;;;;;;7.50;99.90;;;;;;5115382;27;20542;-77
2023/12/20 03:36:06;;;;;;;;;;;7.50;99.90;;;;;;5109191;27;22263;-77
2023/12/20 03:38:32;;;;;;;;;;;7.80;99.90;;;;;;5112646;27;19923;-76
2023/12/20 03:40:58;;;;;;;;;;;7.60;99.90;;;;;;5104455;27;19971;-77
2023/12/20 03:43:23;;;;;;;;;;;7.60;99.90;;;;;;5112785;27;19930;-76
2023/12/20 03:45:49;;;;;;;;;;;7.60;99.90;;;;;;5111528;27;19923;-75
2023/12/20 03:48:14;;;;;;;;;;;7.70;99.90;;;;;;5108807;27;19923;-77
2023/12/20 03:50:40;;;;;;;;;;;7.70;99.90;;;;;;5093708;27;20680;-76
2023/12/20 03:53:06;;;;;;;;;;;7.70;99.90;;;;;;5097570;27;20269;-77
2023/12/20 03:55:31;;;;;;;;;;;7.60;99.90;;;;;;5107362;27;20383;-76
2023/12/20 03:57:57;;;;;;;;;;;7.60;99.90;;;;;;5110112;27;19931;-75
2023/12/20 04:00:22;;;;;;;;;;;7.60;99.90;;;;;;5100148;27;19923;-75
2023/12/20 04:02:48;;;;;;;;;;;7.50;99.90;;;;;;5114715;27;19927;-75
2023/12/20 04:05:14;;;;;;;;;;;7.60;99.90;;;;;;5115020;27;20345;-75
2023/12/20 04:07:39;;;;;;;;;;;7.60;99.90;;;;;;5107948;27;20369;-75
2023/12/20 04:10:05;;;;;;;;;;;7.50;99.90;;;;;;5109857;27;19976;-76
2023/12/20 04:12:31;;;;;;;;;;;7.60;99.90;;;;;;5109168;27;19932;-75
2023/12/20 04:14:57;;;;;;;;;;;7.60;99.90;;;;;;5094080;27;19931;-76
2023/12/20 04:17:23;;;;;;;;;;;7.70;99.90;;;;;;5097249;27;19927;-76
2023/12/20 04:19:49;;;;;;;;;;;7.60;99.90;;;;;;5093100;27;19934;-75
2023/12/20 04:22:14;;;;;;;;;;;7.60;99.90;;;;;;5107180;27;19928;-75
2023/12/20 04:24:42;;;;;;;;;;;7.60;99.90;;;;;;5090208;27;19931;-76
2023/12/20 04:27:07;;;;;;;;;;;7.70;99.90;;;;;;5105253;27;19935;-76
2023/12/20 04:29:33;;;;;;;;;;;7.70;99.90;;;;;;5108224;27;19923;-75
2023/12/20 04:31:59;;;;;;;;;;;7.60;99.90;;;;;;5093281;27;19931;-76
2023/12/20 04:34:24;;;;;;;;;;;7.70;99.90;;;;;;5110291;27;19931;-75
2023/12/20 04:36:50;;;;;;;;;;;7.70;99.90;;;;;;5096156;27;20305;-75
2023/12/20 04:39:16;;;;;;;;;;;7.70;99.90;;;;;;5099682;27;19946;-75
2023/12/20 04:41:41;;;;;;;;;;;7.70;99.90;;;;;;5102064;27;21178;-76
2023/12/20 04:44:07;;;;;;;;;;;7.80;99.90;;;;;;5103018;27;20476;-76
2023/12/20 04:46:33;;;;;;;;;;;7.70;99.90;;;;;;5091429;27;19927;-75
2023/12/20 04:48:58;;;;;;;;;;;7.80;99.90;;;;;;5096560;27;19931;-76
2023/12/20 04:51:24;;;;;;;;;;;7.80;99.90;;;;;;5100288;27;19966;-75
2023/12/20 04:53:50;;;;;;;;;;;7.80;99.90;;;;;;5109538;27;19953;-77
2023/12/20 04:56:15;;;;;;;;;;;7.80;99.90;;;;;;5080727;27;20252;-76
2023/12/20 04:58:42;;;;;;;;;;;7.80;99.90;;;;;;5112011;27;19924;-78
2023/12/20 05:01:08;;;;;;;;;;;7.80;99.90;;;;;;5093793;27;20462;-76
2023/12/20 05:03:34;;;;;;;;;;;7.80;99.90;;;;;;5108150;27;21945;-77
2023/12/20 05:05:59;;;;;;;;;;;7.80;99.90;;;;;;5096648;27;19931;-76
2023/12/20 05:08:25;;;;;;;;;;;7.80;99.90;;;;;;5090888;27;19927;-76
2023/12/20 05:10:54;;;;;;;;;;;7.80;99.90;;;;;;5086752;27;19927;-76
2023/12/20 05:13:20;;;;;;;;;;;7.80;99.90;;;;;;5103944;27;19983;-76
2023/12/20 05:15:45;;;;;;;;;;;7.80;99.90;;;;;;5104599;27;19996;-76
2023/12/20 05:18:11;;;;;;;;;;;7.80;99.90;;;;;;5105482;27;20365;-77
2023/12/20 05:20:37;;;;;;;;;;;7.80;99.90;;;;;;5093803;27;19923;-77
2023/12/20 05:23:02;;;;;;;;;;;7.90;99.90;;;;;;5103676;27;20002;-77
2023/12/20 05:25:28;;;;;;;;;;;7.90;99.90;;;;;;5095946;27;19939;-76
2023/12/20 05:27:54;;;;;;;;;;;7.90;99.90;;;;;;5101617;27;20657;-77
2023/12/20 05:30:19;;;;;;;;;;;7.90;99.90;;;;;;5095341;27;19934;-76
2023/12/20 05:32:45;;;;;;;;;;;7.90;99.90;;;;;;5104612;27;19926;-77
2023/12/20 05:35:10;;;;;;;;;;;7.90;99.90;;;;;;5106892;27;19931;-76
2023/12/20 05:37:36;;;;;;;;;;;7.90;99.90;;;;;;5075212;27;20385;-77
2023/12/20 05:40:02;;;;;;;;;;;7.90;99.90;;;;;;5107539;27;19927;-76
2023/12/20 05:42:28;;;;;;;;;;;8.00;99.90;;;;;;5104742;27;20047;-76
2023/12/20 05:44:53;;;;;;;;;;;7.90;99.90;;;;;;5113585;27;20562;-76
2023/12/20 05:47:19;;;;;;;;;;;7.90;99.90;;;;;;5095361;27;19938;-78
2023/12/20 05:49:45;;;;;;;;;;;8.00;99.90;;;;;;5095286;27;19927;-77
2023/12/20 05:52:10;;;;;;;;;;;8.00;99.90;;;;;;5076457;27;19927;-76
2023/12/20 05:54:36;;;;;;;;;;;8.00;99.90;;;;;;5092032;27;19932;-77
2023/12/20 05:57:01;;;;;;;;;;;7.90;99.90;;;;;;5084706;27;19923;-75
2023/12/20 05:59:27;;;;;;;;;;;7.90;99.90;;;;;;5104435;27;20488;-76
2023/12/20 06:01:53;;;;;;;;;;;7.90;99.90;;;;;;5100214;27;19923;-76
2023/12/20 06:04:19;;;;;;;;;;;7.90;99.90;;;;;;5069649;27;20452;-76
2023/12/20 06:06:45;;;;;;;;;;;7.90;99.90;;;;;;5105449;27;20366;-76
2023/12/20 06:09:10;;;;;;;;;;;7.90;99.90;;;;;;5094217;27;19931;-77
2023/12/20 06:11:36;;;;;;;;;;;7.90;99.90;;;;;;5090687;27;19927;-76
2023/12/20 06:14:02;;;;;;;;;;;7.90;99.90;;;;;;5096153;27;20334;-77
2023/12/20 06:16:27;;;;;;;;;;;7.90;99.90;;;;;;5092137;27;19935;-76
2023/12/20 06:18:53;;;;;;;;;;;8.00;99.90;;;;;;5102138;27;19930;-76
2023/12/20 06:21:18;;;;;;;;;;;8.00;99.90;;;;;;5091709;27;20019;-76
2023/12/20 06:23:44;;;;;;;;;;;8.00;99.90;;;;;;5099504;27;20943;-76
2023/12/20 06:26:10;;;;;;;;;;;8.00;99.90;;;;;;5103707;27;20014;-76
2023/12/20 06:28:36;;;;;;;;;;;7.00;99.90;;;;;;5088784;27;20465;-76
2023/12/20 06:31:02;;;;;;;;;;;8.00;99.90;;;;;;5106498;27;20264;-76
2023/12/20 06:33:29;;;;;;;;;;;8.00;99.90;;;;;;5093684;27;20011;-76
2023/12/20 06:35:54;;;;;;;;;;;8.00;99.90;;;;;;5107525;27;19923;-75
2023/12/20 06:38:20;;;;;;;;;;;8.00;99.90;;;;;;5074934;27;20480;-76
2023/12/20 06:40:46;;;;;;;;;;;8.00;99.90;;;;;;5094944;27;19970;-76
2023/12/20 06:43:12;;;;;;;;;;;8.10;99.90;;;;;;5105306;27;19924;-76
2023/12/20 06:45:37;;;;;;;;;;;8.00;99.90;;;;;;5107575;27;19927;-76
2023/12/20 06:48:03;;;;;;;;;;;8.00;99.90;;;;;;5107109;27;19931;-77
2023/12/20 06:50:29;;;;;;;;;;;8.00;99.90;;;;;;5094615;27;19927;-75
2023/12/20 06:52:54;;;;;;;;;;;8.00;99.90;;;;;;5089961;27;20168;-77
2023/12/20 06:55:20;;;;;;;;;;;8.00;99.90;;;;;;5099921;27;19934;-76
2023/12/20 06:57:46;;;;;;;;;;;7.80;99.90;;;;;;5093014;27;19970;-76
2023/12/20 07:00:13;;;;;;;;;;;7.90;99.90;;;;;;5094378;27;19939;-76
2023/12/20 07:02:39;;;;;;;;;;;7.90;99.90;;;;;;5084156;27;20945;-76
2023/12/20 07:05:07;;;;;;;;;;;7.90;99.90;;;;;;5096281;27;20283;-76
2023/12/20 07:07:33;;;;;;;;;;;8.00;99.90;;;;;;5108299;27;19942;-76
2023/12/20 07:09:59;;;;;;;;;;;7.90;99.90;;;;;;5111751;27;19927;-76
2023/12/20 07:12:24;;;;;;;;;;;9.20;99.90;;;;;;5111482;27;19931;-76
2023/12/20 07:14:50;;;;;;;;;;;8.00;99.90;;;;;;5104000;27;19970;-75
2023/12/20 07:17:16;;;;;;;;;;;8.00;99.90;;;;;;5117103;27;20136;-76
2023/12/20 07:19:42;;;;;;;;;;;8.00;99.90;;;;;;5106998;27;19933;-76
2023/12/20 07:22:07;;;;;;;;;;;8.00;99.90;;;;;;5093093;27;19996;-76
2023/12/20 07:24:33;;;;;;;;;;;8.00;99.90;;;;;;5119676;27;19927;-75
2023/12/20 07:26:59;;;;;;;;;;;8.00;99.90;;;;;;5115645;27;19923;-76
2023/12/20 07:29:25;;;;;;;;;;;8.00;99.90;;;;;;5107292;27;20460;-76
2023/12/20 07:31:52;;;;;;;;;;;8.00;99.90;;;;;;5120008;27;20377;-76
2023/12/20 07:34:17;;;;;;;;;;;7.90;99.90;;;;;;5112485;27;20339;-76
2023/12/20 07:36:43;;;;;;;;;;;8.00;99.90;;;;;;5103337;27;19927;-76
2023/12/20 07:39:09;;;;;;;;;;;7.90;99.90;;;;;;5119509;27;19923;-75
2023/12/20 07:41:34;;;;;;;;;;;7.90;99.90;;;;;;5091777;27;19927;-76
2023/12/20 07:44:00;;;;;;;;;;;7.90;99.90;;;;;;5116261;27;19927;-76
2023/12/20 07:46:25;;;;;;;;;;;8.00;99.90;;;;;;5113188;27;19928;-76
2023/12/20 07:48:51;;;;;;;;;;;8.00;99.90;;;;;;5119534;27;19927;-76
2023/12/20 07:51:17;;;;;;;;;;;8.00;99.90;;;;;;5079908;27;19934;-76
2023/12/20 07:53:43;;;;;;;;;;;8.00;99.90;;;;;;5101910;27;20298;-76
2023/12/20 07:56:13;;;;;;;;;;;8.00;99.90;;;;;;5112367;27;19938;-76
2023/12/20 07:58:39;;;;;;;;;;;8.00;99.90;;;;;;5103006;27;20001;-76
2023/12/20 08:01:04;;;;;;;;;;;8.00;99.90;;;;;;5115647;27;20042;-76
2023/12/20 08:03:30;;;;;;;;;;;8.00;99.90;;;;;;5099976;27;20825;-76
2023/12/20 08:05:56;;;;;;;;;;;8.00;99.90;;;;;;5114637;27;19936;-76
2023/12/20 08:08:22;;;;;;;;;;;7.90;99.90;;;;;;5112448;27;19923;-75
2023/12/20 08:10:47;;;;;;;;;;;8.00;99.90;;;;;;5114092;27;19931;-76
2023/12/20 08:13:13;;;;;;;;;;;8.00;99.90;;;;;;5097903;27;19962;-76
2023/12/20 08:15:39;;;;;;;;;;;8.00;99.90;;;;;;5115936;27;19928;-75
2023/12/20 08:18:05;;;;;;;;;;;8.00;99.90;;;;;;5110132;27;20285;-76
2023/12/20 08:20:30;;;;;;;;;;;8.00;99.90;;;;;;5084034;27;19931;-76
2023/12/20 08:22:56;;;;;;;;;;;8.00;99.90;;;;;;5106078;27;19931;-77
2023/12/20 08:25:21;;;;;;;;;;;8.00;99.90;;;;;;5100503;27;20464;-76
2023/12/20 08:27:47;;;;;;;;;;;8.10;99.90;;;;;;5099740;27;19923;-76
2023/12/20 08:30:21;;;;;;;;;;;8.10;99.90;;;;;;5118717;27;20022;-76
2023/12/20 08:32:50;;;;;;;;;;;8.10;99.90;;;;;;5102094;27;19923;-75
2023/12/20 08:35:15;;;;;;;;;;;8.10;99.90;;;;;;5112986;27;20498;-76
2023/12/20 08:37:41;;;;;;;;;;;8.10;99.90;;;;;;5115330;27;19927;-75
2023/12/20 08:40:07;;;;;;;;;;;8.10;99.90;;;;;;5113786;27;19927;-77
2023/12/20 08:42:32;;;;;;;;;;;8.10;99.90;;;;;;5098627;27;19933;-77
2023/12/20 08:44:58;;;;;;;;;;;8.00;99.90;;;;;;5118909;27;19932;-77
2023/12/20 08:47:24;;;;;;;;;;;7.90;99.90;;;;;;5129809;27;19924;-77
2023/12/20 08:49:50;;;;;;;;;;;7.80;99.90;;;;;;5106750;27;19930;-77
2023/12/20 08:52:15;;;;;;;;;;;7.70;99.90;;;;;;5107519;27;19932;-76
2023/12/20 08:54:41;;;;;;;;;;;7.70;99.90;;;;;;5111539;27;19927;-76
2023/12/20 08:57:07;;;;;;;;;;;7.70;99.90;;;;;;5115683;27;19927;-79
2023/12/20 08:59:33;;;;;;;;;;;7.70;99.90;;;;;;5116442;27;19994;-78
2023/12/20 09:01:58;;;;;;;;;;;7.50;99.90;;;;;;5114464;27;19931;-75
2023/12/20 09:04:24;;;;;;;;;;;7.40;99.90;;;;;;5113833;27;19939;-76
2023/12/20 09:06:50;;;;;;;;;;;7.30;99.90;;;;;;5115505;27;19927;-77
2023/12/20 09:09:16;;;;;;;;;;;7.30;99.90;;;;;;5093993;27;19931;-78
2023/12/20 09:11:42;;;;;;;;;;;7.30;99.90;;;;;;5109514;27;20377;-74
2023/12/20 09:14:07;;;;;;;;;;;7.20;99.90;;;;;;5109855;27;19931;-75
2023/12/20 09:16:35;;;;;;;;;;;7.10;99.90;;;;;;5113085;27;19928;-76
2023/12/20 09:19:00;;;;;;;;;;;7.00;99.90;;;;;;5095920;27;19984;-75
2023/12/20 09:21:26;;;;;;;;;;;6.90;99.90;;;;;;5089310;27;19931;-76
2023/12/20 09:23:52;;;;;;;;;;;6.90;99.90;;;;;;5110736;27;19970;-75
2023/12/20 09:26:17;;;;;;;;;;;6.90;99.90;;;;;;5110644;27;19934;-77
2023/12/20 09:28:43;;;;;;;;;;;6.90;99.90;;;;;;5096905;27;19948;-77
2023/12/20 09:31:09;;;;;;;;;;;6.80;99.90;;;;;;5100267;27;19935;-77
2023/12/20 09:33:35;;;;;;;;;;;6.80;99.90;;;;;;5114218;27;19976;-75
2023/12/20 09:36:00;;;;;;;;;;;6.80;99.90;;;;;;5092873;27;19931;-75
2023/12/20 09:38:29;;;;;;;;;;;6.70;99.90;;;;;;5111539;27;20000;-76
2023/12/20 09:40:56;;;;;;;;;;;6.70;99.90;;;;;;5108234;27;19927;-76
2023/12/20 09:43:23;;;;;;;;;;;6.70;99.90;;;;;;5127685;27;19973;-74
2023/12/20 09:45:52;;;;;;;;;;;6.70;99.90;;;;;;5111978;27;19975;-74
2023/12/20 09:48:19;;;;;;;;;;;6.70;99.90;;;;;;5130239;27;19927;-75
2023/12/20 09:50:45;;;;;;;;;;;6.70;99.90;;;;;;5093093;27;19931;-75
2023/12/20 09:53:14;;;;;;;;;;;6.70;99.90;;;;;;5132523;27;19972;-77
2023/12/20 09:55:41;;;;;;;;;;;6.70;99.90;;;;;;5094354;27;19928;-76
2023/12/20 09:58:08;;;;;;;;;;;7.30;99.90;;;;;;5101937;27;20038;-76
2023/12/20 10:00:36;;;;;;;;;;;6.80;99.90;;;;;;5100574;27;20465;-76
2023/12/20 10:03:03;;;;;;;;;;;6.90;99.90;;;;;;5110696;27;20296;-76
2023/12/20 10:05:30;;;;;;;;;;;7.00;99.90;;;;;;5108363;27;20038;-78
2023/12/20 10:07:57;;;;;;;;;;;7.10;99.90;;;;;;5079448;27;19928;-77
2023/12/20 10:10:23;;;;;;;;;;;7.10;99.90;;;;;;5128744;27;20681;-78
2023/12/20 10:13:05;;;;;;;;;;;7.10;99.90;;;;;;5101557;27;19927;-77
2023/12/20 10:15:32;;;;;;;;;;;7.20;99.90;;;;;;5099133;27;20209;-77
2023/12/20 10:17:58;;;;;;;;;;;7.20;99.90;;;;;;5101102;27;20447;-77
2023/12/20 10:20:23;;;;;;;;;;;7.30;99.90;;;;;;5091671;27;19971;-77
2023/12/20 10:22:49;;;;;;;;;;;7.30;99.90;;;;;;5089793;27;20479;-75
2023/12/20 10:25:15;;;;;;;;;;;7.30;99.90;;;;;;5087914;27;20327;-76
2023/12/20 10:27:41;;;;;;;;;;;7.30;99.90;;;;;;5104867;27;20677;-77
2023/12/20 10:30:07;;;;;;;;;;;7.30;99.90;;;;;;5086946;27;19923;-78
2023/12/20 10:32:33;;;;;;;;;;;7.30;99.90;;;;;;5096351;27;19934;-77
2023/12/20 10:34:59;;;;;;;;;;;8.30;99.90;;;;;;5094706;27;19931;-78
2023/12/20 10:37:25;;;;;;;;;;;7.30;99.90;;;;;;5082330;27;19938;-77
2023/12/20 10:39:51;;;;;;;;;;;7.30;99.90;;;;;;5100064;27;19927;-76
2023/12/20 10:42:20;;;;;;;;;;;7.40;99.90;;;;;;5087224;27;19927;-76
2023/12/20 10:44:46;;;;;;;;;;;7.40;99.90;;;;;;5097678;27;19930;-76
2023/12/20 10:47:12;;;;;;;;;;;7.40;99.90;;;;;;5105255;27;19972;-75
2023/12/20 10:49:39;;;;;;;;;;;7.40;99.90;;;;;;5107910;27;19931;-75
2023/12/20 10:52:06;;;;;;;;;;;7.50;99.90;;;;;;5123968;27;19930;-78
2023/12/20 10:54:32;;;;;;;;;;;7.50;99.90;;;;;;5090771;27;19927;-78
2023/12/20 10:56:58;;;;;;;;;;;7.60;99.90;;;;;;5094534;27;19963;-76
2023/12/20 10:59:24;;;;;;;;;;;7.60;99.90;;;;;;5103086;27;20025;-76
2023/12/20 11:01:50;;;;;;;;;;;7.70;99.90;;;;;;5090299;27;19927;-77
2023/12/20 11:04:19;;;;;;;;;;;7.80;99.90;;;;;;5106718;27;19935;-76
2023/12/20 11:06:56;;;;;;;;;;;7.80;99.90;;;;;;5109888;27;19931;-76
2023/12/20 11:09:38;;;;;;;;;;;7.80;99.90;;;;;;5113138;27;19931;-76
2023/12/20 11:12:16;;;;;;;;;;;7.80;99.90;;;;;;5090084;27;19931;-77
2023/12/20 11:14:45;;;;;;;;;;;7.80;99.90;;;;;;5110844;27;19946;-77
2023/12/20 11:17:13;;;;;;;;;;;7.80;99.90;;;;;;5092685;27;19960;-77
2023/12/20 11:19:58;;;;;;;;;;;7.80;99.90;;;;;;5091431;27;19931;-77
2023/12/20 11:22:30;;;;;;;;;;;7.80;99.90;;;;;;5105953;27;19923;-77
2023/12/20 11:25:08;;;;;;;;;;;7.80;99.90;;;;;;5109014;27;19927;-76
2023/12/20 11:27:33;;;;;;;;;;;7.80;99.90;;;;;;5097587;27;21701;-76
2023/12/20 11:30:00;;;;;;;;;;;7.80;99.90;;;;;;5093562;27;20419;-76
2023/12/20 11:32:29;;;;;;;;;;;7.80;99.90;;;;;;5081475;27;19931;-77
2023/12/20 11:34:59;;;;;;;;;;;7.80;99.90;;;;;;5088155;27;19923;-76
2023/12/20 11:37:37;;;;;;;;;;;7.80;99.90;;;;;;5095555;27;19932;-77
2023/12/20 11:40:09;;;;;;;;;;;7.70;99.90;;;;;;5105119;27;19927;-77
2023/12/20 11:42:41;;;;;;;;;;;7.70;99.90;;;;;;5111235;27;20438;-77
2023/12/20 11:45:27;;;;;;;;;;;7.60;99.90;;;;;;5108649;27;20370;-77
2023/12/20 11:47:57;;;;;;;;;;;7.50;99.90;;;;;;5113116;27;20041;-76
2023/12/20 11:50:23;;;;;;;;;;;7.50;99.90;;;;;;5109162;27;19982;-77
2023/12/20 11:52:49;;;;;;;;;;;7.40;99.90;;;;;;5103907;27;19931;-77
2023/12/20 11:55:15;;;;;;;;;;;7.40;99.90;;;;;;5102404;27;19954;-79
2023/12/20 11:57:41;;;;;;;;;;;7.30;99.90;;;;;;5111173;27;20338;-76
2023/12/20 12:00:08;;;;;;;;;;;6.30;99.90;;;;;;5108576;27;19931;-75
2023/12/20 12:02:33;;;;;;;;;;;7.30;99.90;;;;;;5092414;27;20398;-77
2023/12/20 12:04:59;;;;;;;;;;;7.30;99.90;;;;;;5107721;27;20510;-80
2023/12/20 12:07:25;;;;;;;;;;;7.30;99.90;;;;;;5109709;27;20005;-75
2023/12/20 12:09:51;;;;;;;;;;;7.20;99.90;;;;;;5102456;27;19935;-73
2023/12/20 12:12:17;;;;;;;;;;;7.30;99.90;;;;;;5095905;27;19930;-77
2023/12/20 12:14:44;;;;;;;;;;;7.20;99.90;;;;;;5110680;27;19931;-75
2023/12/20 12:17:10;;;;;;;;;;;7.20;99.90;;;;;;5108239;27;20010;-76
2023/12/20 12:19:37;;;;;;;;;;;7.20;99.90;;;;;;5091043;27;20188;-76
2023/12/20 12:22:10;;;;;;;;;;;7.20;99.90;;;;;;5112254;27;19980;-78
2023/12/20 12:24:37;;;;;;;;;;;7.10;99.90;;;;;;5108553;27;19977;-75
2023/12/20 12:27:03;;;;;;;;;;;7.10;99.90;;;;;;5110960;27;19934;-79
2023/12/20 12:29:29;;;;;;;;;;;7.10;99.90;;;;;;5106122;27;19931;-79
2023/12/20 12:31:54;;;;;;;;;;;7.10;99.90;;;;;;5111914;27;19962;-79
2023/12/20 12:34:20;;;;;;;;;;;7.10;99.90;;;;;;5097724;27;20006;-79
2023/12/20 12:36:46;;;;;;;;;;;7.10;99.90;;;;;;5100673;27;19931;-77
2023/12/20 12:39:17;;;;;;;;;;;7.00;99.90;;;;;;5108745;27;19927;-78
2023/12/20 12:41:43;;;;;;;;;;;7.00;99.90;;;;;;5116333;27;19934;-77
2023/12/20 12:44:09;;;;;;;;;;;7.00;99.90;;;;;;5109068;27;20461;-76
2023/12/20 12:46:35;;;;;;;;;;;6.90;99.90;;;;;;5090742;27;19932;-79
2023/12/20 12:49:00;;;;;;;;;;;6.90;99.90;;;;;;5098720;27;19963;-78
2023/12/20 12:51:26;;;;;;;;;;;6.90;99.90;;;;;;5097132;27;19927;-76
2023/12/20 12:53:51;;;;;;;;;;;6.90;99.90;;;;;;5109993;27;22723;-77
2023/12/20 12:56:17;;;;;;;;;;;6.80;99.90;;;;;;5106683;27;19928;-79
2023/12/20 12:58:43;;;;;;;;;;;6.80;99.90;;;;;;5125560;27;19927;-77
2023/12/20 13:01:09;;;;;;;;;;;6.80;99.90;;;;;;5095213;27;19927;-75
2023/12/20 13:03:35;;;;;;;;;;;6.90;99.90;;;;;;5088138;27;20214;-75
2023/12/20 13:06:01;;;;;;;;;;;6.90;99.90;;;;;;5098245;27;19970;-76
2023/12/20 13:08:26;;;;;;;;;;;6.80;99.90;;;;;;5105544;27;19997;-76
2023/12/20 13:10:52;;;;;;;;;;;6.80;99.90;;;;;;5097332;27;19927;-78
2023/12/20 13:13:18;;;;;;;;;;;6.90;99.90;;;;;;5114078;27;20381;-77
2023/12/20 13:15:50;;;;;;;;;;;6.90;99.90;;;;;;5095262;27;19934;-77
2023/12/20 13:18:17;;;;;;;;;;;6.90;99.90;;;;;;5112711;27;20361;-79
2023/12/20 13:20:42;;;;;;;;;;;6.90;99.90;;;;;;5105359;27;19974;-77
2023/12/20 13:23:08;;;;;;;;;;;6.90;99.90;;;;;;5111433;27;20018;-80
2023/12/20 13:25:34;;;;;;;;;;;5.80;99.90;;;;;;5084552;27;19927;-78
2023/12/20 13:27:59;;;;;;;;;;;6.90;99.90;;;;;;5104228;27;19934;-76
2023/12/20 13:30:25;;;;;;;;;;;6.90;99.90;;;;;;5100385;27;20476;-79
2023/12/20 13:32:51;;;;;;;;;;;6.90;99.90;;;;;;5110214;27;20413;-79
2023/12/20 13:35:16;;;;;;;;;;;7.00;99.90;;;;;;5108935;27;19965;-76
2023/12/20 13:37:42;;;;;;;;;;;7.00;99.90;;;;;;5094197;27;19976;-75
2023/12/20 13:40:08;;;;;;;;;;;7.00;99.90;;;;;;5111035;27;19969;-76
2023/12/20 13:42:34;;;;;;;;;;;7.00;99.90;;;;;;5093180;27;19936;-76
2023/12/20 13:44:59;;;;;;;;;;;7.10;99.90;;;;;;5112969;27;20381;-74
2023/12/20 13:47:25;;;;;;;;;;;7.10;99.90;;;;;;5096048;27;19927;-74
2023/12/20 13:49:51;;;;;;;;;;;7.20;99.90;;;;;;5109520;27;19935;-74
2023/12/20 13:52:16;;;;;;;;;;;7.30;99.90;;;;;;5106445;27;20436;-75
2023/12/20 13:54:42;;;;;;;;;;;7.40;99.90;;;;;;5100597;27;19930;-75
2023/12/20 13:57:07;;;;;;;;;;;7.40;99.90;;;;;;5108807;27;19930;-78
2023/12/20 13:59:35;;;;;;;;;;;7.50;99.90;;;;;;5114418;27;19927;-77
2023/12/20 14:02:01;;;;;;;;;;;7.60;99.90;;;;;;5098253;27;19935;-76
2023/12/20 14:04:26;;;;;;;;;;;7.70;99.90;;;;;;5092458;27;19928;-76
2023/12/20 14:06:52;;;;;;;;;;;7.70;99.90;;;;;;5097279;27;19926;-75
2023/12/20 14:09:18;;;;;;;;;;;7.70;99.90;;;;;;5086034;27;19931;-76
2023/12/20 14:11:43;;;;;;;;;;;7.70;99.90;;;;;;5092931;27;20213;-75
2023/12/20 14:14:09;;;;;;;;;;;7.70;99.90;;;;;;5106537;27;20393;-77
2023/12/20 14:16:35;;;;;;;;;;;7.70;99.90;;;;;;5105529;27;21671;-78
2023/12/20 14:19:02;;;;;;;;;;;7.80;99.90;;;;;;5117985;27;19931;-75
2023/12/20 14:21:28;;;;;;;;;;;7.80;99.90;;;;;;5114763;27;19931;-75
2023/12/20 14:23:54;;;;;;;;;;;7.80;99.90;;;;;;5106248;27;19955;-75
2023/12/20 14:26:20;;;;;;;;;;;7.80;99.90;;;;;;5109270;27;19930;-77